Time;durP1;ratioP1;P1;durP2;ratioP2;P2;SDS_P1;SDS_P2;PMS_P1;PMS_P2;Temp;Humidity;BMP_temperature;BMP_pressure;BME280_temperature;BME280_humidity;BME280_pressure;Samples;Min_cycle;Max_cycle;Signal;HPM_P1;HPM_P2
2022/03/30 00:02:14;;;;;;;13.00;2.10;;;;;;;5.92;100.00;100774.91;10216350;28;20133;-64
2022/03/30 00:07:10;;;;;;;14.85;1.90;;;;;;;5.91;100.00;100762.41;10211778;28;20065;-66
2022/03/30 00:12:08;;;;;;;16.15;2.08;;;;;;;5.95;100.00;100760.78;10208922;28;20492;-65
2022/03/30 00:17:04;;;;;;;12.05;1.77;;;;;;;5.95;100.00;100758.06;10210975;28;20038;-64
2022/03/30 00:22:01;;;;;;;7.03;1.67;;;;;;;5.88;100.00;100744.00;10212000;28;20451;-65
2022/03/30 00:26:57;;;;;;;10.13;2.05;;;;;;;5.94;100.00;100751.03;10203824;28;20047;-65
2022/03/30 00:31:54;;;;;;;11.25;1.67;;;;;;;5.91;100.00;100746.13;10220357;28;20041;-65
2022/03/30 00:36:51;;;;;;;6.68;1.10;;;;;;;5.90;100.00;100733.66;10206361;28;20045;-65
2022/03/30 00:41:47;;;;;;;13.57;2.33;;;;;;;5.89;100.00;100729.31;10212130;28;20486;-63
2022/03/30 00:46:44;;;;;;;6.40;1.35;;;;;;;5.90;100.00;100728.25;10205666;28;20068;-64
2022/03/30 00:51:40;;;;;;;7.93;1.60;;;;;;;5.79;100.00;100726.72;10206308;28;20045;-63
2022/03/30 00:56:42;;;;;;;7.45;1.40;;;;;;;5.72;100.00;100732.47;10213311;28;20046;-63
2022/03/30 01:01:39;;;;;;;11.70;1.67;;;;;;;5.77;100.00;100723.47;10210382;28;20137;-65
2022/03/30 01:06:36;;;;;;;9.50;1.38;;;;;;;5.65;100.00;100719.22;10200895;28;20439;-65
2022/03/30 01:11:32;;;;;;;11.23;1.30;;;;;;;5.66;100.00;100707.28;10212195;28;20077;-64
2022/03/30 01:16:30;;;;;;;9.27;1.77;;;;;;;5.67;100.00;100710.81;10209238;28;20104;-64
2022/03/30 01:21:26;;;;;;;8.63;1.50;;;;;;;5.68;100.00;100698.84;10212500;28;20049;-64
2022/03/30 01:26:25;;;;;;;7.70;1.50;;;;;;;5.67;100.00;100703.47;10206168;28;20038;-64
2022/03/30 01:36:45;;;;;;;9.13;1.63;;;;;;;5.65;100.00;100697.53;10182578;28;20259;-64
2022/03/30 01:41:41;;;;;;;9.18;1.58;;;;;;;5.73;100.00;100684.44;10210265;28;20104;-64
2022/03/30 01:46:38;;;;;;;11.60;2.85;;;;;;;5.73;100.00;100679.81;10211054;28;20743;-63
2022/03/30 01:51:35;;;;;;;11.20;1.42;;;;;;;5.64;100.00;100665.25;10206155;28;20116;-64
2022/03/30 01:56:32;;;;;;;10.75;2.38;;;;;;;5.58;100.00;100666.41;10214009;28;20131;-73
2022/03/30 02:01:28;;;;;;;6.65;1.25;;;;;;;5.42;100.00;100669.25;10209855;28;20041;-69
2022/03/30 02:06:25;;;;;;;10.70;2.40;;;;;;;5.28;100.00;100663.66;10207859;28;20399;-70
2022/03/30 02:11:21;;;;;;;6.97;1.55;;;;;;;5.54;100.00;100659.94;10206816;28;20076;-70
2022/03/30 02:16:18;;;;;;;8.75;2.47;;;;;;;5.50;100.00;100657.00;10201882;28;20137;-70
2022/03/30 02:21:15;;;;;;;15.27;1.63;;;;;;;5.55;100.00;100656.94;10207132;28;20049;-72
2022/03/30 02:26:13;;;;;;;15.48;2.35;;;;;;;5.59;100.00;100658.00;10211958;28;20477;-72
2022/03/30 02:31:12;;;;;;;10.65;1.25;;;;;;;5.49;100.00;100652.66;10207242;28;20095;-71
2022/03/30 02:36:09;;;;;;;9.05;1.65;;;;;;;5.48;100.00;100651.03;10204378;28;20061;-71
2022/03/30 02:41:06;;;;;;;12.57;2.00;;;;;;;5.50;100.00;100648.84;10210322;28;20218;-72
2022/03/30 02:46:03;;;;;;;11.40;1.45;;;;;;;5.44;100.00;100650.00;10210217;28;20046;-72
2022/03/30 02:51:03;;;;;;;11.65;1.67;;;;;;;5.33;100.00;100643.03;10208223;28;20466;-72
2022/03/30 02:56:00;;;;;;;7.05;1.30;;;;;;;5.33;100.00;100632.19;10218216;28;20064;-71
2022/03/30 03:00:57;;;;;;;13.50;1.55;;;;;;;5.33;100.00;100637.59;10210237;28;20077;-72
2022/03/30 03:05:54;;;;;;;9.63;1.70;;;;;;;5.43;100.00;100634.78;10207873;28;20066;-72
2022/03/30 03:10:50;;;;;;;9.77;2.47;;;;;;;5.51;100.00;100634.19;10210274;28;20065;-69
2022/03/30 03:15:47;;;;;;;10.85;2.75;;;;;;;5.55;100.00;100629.81;10206754;28;20122;-72
2022/03/30 03:20:49;;;;;;;7.90;1.55;;;;;;;5.52;100.00;100638.50;10206347;28;20049;-73
2022/03/30 03:25:46;;;;;;;9.15;1.15;;;;;;;5.58;100.00;100623.00;10202270;28;20065;-66
2022/03/30 03:30:43;;;;;;;11.73;1.40;;;;;;;5.26;100.00;100630.59;10195034;28;20042;-65
2022/03/30 03:35:39;;;;;;;8.00;1.27;;;;;;;5.10;100.00;100628.31;10214749;28;20056;-63
2022/03/30 03:40:37;;;;;;;8.65;1.15;;;;;;;5.26;100.00;100621.66;10209484;28;20046;-63
2022/03/30 03:45:33;;;;;;;6.85;1.00;;;;;;;5.30;100.00;100628.16;10217460;28;20038;-64
2022/03/30 03:50:30;;;;;;;7.43;1.10;;;;;;;5.41;100.00;100620.75;10203470;28;20053;-64
2022/03/30 03:55:26;;;;;;;4.65;0.77;;;;;;;5.40;100.00;100630.75;10208627;28;20039;-65
2022/03/30 04:00:23;;;;;;;8.23;1.17;;;;;;;5.42;100.00;100619.63;10213014;28;20128;-64
2022/03/30 04:05:19;;;;;;;6.03;0.93;;;;;;;5.43;100.00;100615.81;10201953;28;20049;-64
2022/03/30 04:10:16;;;;;;;7.45;0.98;;;;;;;5.47;100.00;100622.28;10200670;28;20169;-64
2022/03/30 04:15:12;;;;;;;8.07;0.93;;;;;;;5.46;100.00;100615.25;10201514;28;20057;-64
2022/03/30 04:20:10;;;;;;;5.88;0.90;;;;;;;5.42;100.00;100622.34;10204334;28;20491;-64
2022/03/30 04:25:07;;;;;;;8.88;1.20;;;;;;;5.48;100.00;100623.94;10196777;28;20140;-64
2022/03/30 04:30:04;;;;;;;14.80;1.45;;;;;;;5.36;100.00;100631.59;10192473;28;20092;-64
2022/03/30 04:35:01;;;;;;;9.90;1.00;;;;;;;5.26;100.00;100629.81;10215523;28;20088;-63
2022/03/30 04:39:57;;;;;;;11.18;1.35;;;;;;;5.12;100.00;100621.50;10224834;28;20431;-63
2022/03/30 04:44:54;;;;;;;8.50;1.20;;;;;;;5.15;100.00;100623.69;10219371;28;20045;-64
2022/03/30 04:49:50;;;;;;;9.13;1.23;;;;;;;5.09;100.00;100621.28;10201033;28;20156;-63
2022/03/30 04:54:46;;;;;;;6.85;1.02;;;;;;;5.14;100.00;100619.31;10219143;28;20173;-64
2022/03/30 04:59:43;;;;;;;6.03;1.48;;;;;;;5.18;100.00;100620.38;10224712;28;20046;-64
2022/03/30 05:04:39;;;;;;;7.82;1.33;;;;;;;5.20;100.00;100623.63;10217362;28;20569;-64
2022/03/30 05:09:36;;;;;;;8.90;1.50;;;;;;;5.14;100.00;100630.16;10222501;28;20045;-63
2022/03/30 05:14:33;;;;;;;10.82;1.42;;;;;;;4.98;100.00;100620.53;10202828;28;20054;-63
2022/03/30 05:19:29;;;;;;;6.55;1.00;;;;;;;4.93;100.00;100623.28;10216894;28;20140;-63
2022/03/30 05:24:26;;;;;;;6.22;1.00;;;;;;;4.94;100.00;100614.88;10205323;28;20042;-63
2022/03/30 05:29:23;;;;;;;6.90;1.90;;;;;;;4.83;100.00;100614.16;10199411;28;20074;-63
2022/03/30 05:34:19;;;;;;;7.85;1.35;;;;;;;4.91;100.00;100620.84;10201119;28;20515;-64
2022/03/30 05:39:16;;;;;;;5.60;1.10;;;;;;;5.00;100.00;100623.78;10210296;28;20061;-64
2022/03/30 05:44:13;;;;;;;8.88;1.42;;;;;;;5.02;100.00;100616.19;10212727;28;20115;-64
2022/03/30 05:49:09;;;;;;;8.15;1.83;;;;;;;4.96;100.00;100625.44;10226227;28;20065;-64
2022/03/30 05:54:06;;;;;;;5.07;1.58;;;;;;;4.98;100.00;100615.94;10227074;28;20103;-63
2022/03/30 05:59:02;;;;;;;6.50;1.30;;;;;;;4.99;100.00;100622.16;10207305;28;20061;-65
2022/03/30 06:04:02;;;;;;;5.95;1.52;;;;;;;5.03;100.00;100628.63;10226036;28;20467;-66
2022/03/30 06:09:00;;;;;;;7.53;1.67;;;;;;;4.94;100.00;100622.19;10221915;28;20132;-66
2022/03/30 06:13:58;;;;;;;7.18;1.40;;;;;;;5.02;100.00;100627.03;10194980;28;20084;-66
2022/03/30 06:18:55;;;;;;;9.27;1.35;;;;;;;5.05;100.00;100621.03;10220396;28;20128;-65
2022/03/30 06:23:51;;;;;;;6.38;1.20;;;;;;;5.15;100.00;100623.69;10209974;28;20135;-65
2022/03/30 06:28:49;;;;;;;6.10;1.20;;;;;;;5.20;100.00;100623.63;10217527;28;20095;-65
2022/03/30 06:33:47;;;;;;;6.07;0.90;;;;;;;5.25;100.00;100631.72;10225033;28;20045;-65
2022/03/30 06:38:43;;;;;;;8.38;1.45;;;;;;;5.18;100.00;100625.81;10212046;28;20432;-65
2022/03/30 06:43:42;;;;;;;3.50;1.10;;;;;;;5.21;100.00;100625.22;10224643;28;20561;-65
2022/03/30 06:48:39;;;;;;;4.15;1.20;;;;;;;5.32;100.00;100625.97;10203711;28;20060;-65
2022/03/30 06:53:35;;;;;;;5.65;1.02;;;;;;;5.26;100.00;100627.88;10228650;28;20073;-65
2022/03/30 06:58:32;;;;;;;9.05;1.05;;;;;;;5.41;100.00;100621.53;10220287;28;20042;-65
2022/03/30 07:03:29;;;;;;;9.77;1.05;;;;;;;5.62;100.00;100627.56;10204926;28;20053;-65
2022/03/30 07:13:41;;;;;;;5.63;1.20;;;;;;;5.81;100.00;100626.84;10210694;28;20414;-64
2022/03/30 07:18:37;;;;;;;6.25;1.25;;;;;;;5.70;100.00;100621.50;10208780;28;20133;-65
2022/03/30 07:23:34;;;;;;;10.13;2.05;;;;;;;5.69;100.00;100621.81;10219539;28;20077;-65
2022/03/30 07:28:31;;;;;;;8.68;1.45;;;;;;;5.80;100.00;100620.63;10212734;28;20569;-65
2022/03/30 07:33:29;;;;;;;6.47;1.08;;;;;;;5.84;100.00;100620.84;10221158;28;20512;-65
2022/03/30 07:38:26;;;;;;;5.75;2.22;;;;;;;5.81;100.00;100621.41;10216040;28;20046;-65
2022/03/30 07:43:22;;;;;;;5.18;1.27;;;;;;;5.63;100.00;100615.63;10210043;28;20057;-65
2022/03/30 07:48:19;;;;;;;6.03;1.33;;;;;;;5.63;100.00;100615.63;10205058;28;20049;-65
2022/03/30 07:53:16;;;;;;;7.25;1.20;;;;;;;5.91;100.00;100615.88;10209018;28;20818;-65
2022/03/30 07:58:12;;;;;;;4.20;1.20;;;;;;;5.65;100.00;100618.84;10207270;28;20120;-65
2022/03/30 08:03:09;;;;;;;7.07;1.02;;;;;;;5.87;100.00;100615.66;10207782;28;20409;-65
2022/03/30 08:08:07;;;;;;;7.97;1.10;;;;;;;6.00;100.00;100608.72;10205767;28;20046;-65
2022/03/30 08:13:04;;;;;;;7.85;1.48;;;;;;;6.09;100.00;100609.72;10214534;28;20049;-65
2022/03/30 08:18:02;;;;;;;8.32;1.10;;;;;;;6.18;100.00;100606.38;10206324;28;20542;-65
2022/03/30 08:23:00;;;;;;;5.00;1.15;;;;;;;6.34;100.00;100602.34;10204636;28;20100;-65
2022/03/30 08:27:56;;;;;;;6.97;1.00;;;;;;;6.22;100.00;100600.06;10202951;28;20052;-64
2022/03/30 08:32:54;;;;;;;9.95;1.27;;;;;;;6.42;100.00;100609.81;10202572;28;20054;-65
2022/03/30 08:37:51;;;;;;;6.57;1.40;;;;;;;6.36;100.00;100605.59;10204820;28;20120;-65
2022/03/30 08:42:48;;;;;;;4.53;1.17;;;;;;;6.42;100.00;100604.41;10226323;28;20454;-64
2022/03/30 08:47:48;;;;;;;7.10;1.65;;;;;;;6.53;100.00;100611.31;10208313;28;20468;-67
2022/03/30 08:52:47;;;;;;;6.88;1.45;;;;;;;6.23;100.00;100606.28;10224552;28;20080;-65
2022/03/30 08:57:44;;;;;;;4.53;1.42;;;;;;;6.43;100.00;100608.75;10209585;28;20141;-67
2022/03/30 09:03:01;;;;;;;4.28;1.40;;;;;;;6.53;100.00;100605.06;10221896;28;20136;-67
2022/03/30 09:08:13;;;;;;;5.43;1.48;;;;;;;6.62;100.00;100611.47;10211685;28;20053;-67
2022/03/30 09:13:11;;;;;;;5.95;1.25;;;;;;;6.70;100.00;100599.13;10217566;28;20099;-66
2022/03/30 09:18:11;;;;;;;7.03;1.75;;;;;;;6.68;100.00;100598.59;10213516;28;20053;-67
2022/03/30 09:23:11;;;;;;;6.93;2.00;;;;;;;6.85;100.00;100596.19;10226968;28;20128;-66
2022/03/30 09:28:17;;;;;;;6.10;1.92;;;;;;;6.80;100.00;100596.25;10216210;28;20045;-66
2022/03/30 09:33:18;;;;;;;7.10;2.50;;;;;;;6.71;100.00;100598.03;10225528;28;20046;-66
2022/03/30 09:38:17;;;;;;;7.28;1.80;;;;;;;6.64;100.00;100597.59;10219998;28;20076;-67
2022/03/30 09:43:25;;;;;;;8.00;2.40;;;;;;;6.66;100.00;100598.09;10215093;28;20545;-67
2022/03/30 09:48:24;;;;;;;7.93;2.42;;;;;;;6.77;100.00;100594.13;10200023;28;20200;-66
2022/03/30 09:53:23;;;;;;;6.22;1.48;;;;;;;6.65;100.00;100596.47;10225548;28;20049;-64
2022/03/30 09:58:21;;;;;;;4.72;1.42;;;;;;;6.68;100.00;100587.72;10208584;28;20068;-65
2022/03/30 10:03:18;;;;;;;7.22;1.65;;;;;;;6.70;100.00;100577.38;10227179;28;20136;-65
2022/03/30 10:08:15;;;;;;;6.28;1.30;;;;;;;6.92;100.00;100582.22;10214420;28;20492;-66
2022/03/30 10:13:12;;;;;;;5.38;1.60;;;;;;;7.09;100.00;100581.66;10227137;28;20049;-66
2022/03/30 10:18:10;;;;;;;4.47;1.25;;;;;;;7.31;100.00;100581.00;10218210;28;20045;-65
2022/03/30 10:23:12;;;;;;;5.53;1.20;;;;;;;7.31;100.00;100575.56;10215943;28;20073;-65
2022/03/30 10:28:31;;;;;;;3.20;1.17;;;;;;;7.01;100.00;100568.72;10208209;28;20073;-66
2022/03/30 10:33:33;;;;;;;5.20;1.58;;;;;;;7.19;100.00;100567.88;10206710;28;20598;-65
2022/03/30 10:38:30;;;;;;;7.47;1.87;;;;;;;7.29;100.00;100562.28;10198347;28;20081;-65
2022/03/30 10:43:26;;;;;;;6.80;1.30;;;;;;;7.33;100.00;100552.41;10208087;28;20084;-64
2022/03/30 10:48:28;;;;;;;6.35;1.60;;;;;;;7.67;100.00;100544.97;10203317;28;20092;-66
2022/03/30 10:53:31;;;;;;;6.18;1.00;;;;;;;7.73;100.00;100536.41;10209434;28;20095;-65
2022/03/30 10:58:27;;;;;;;7.07;1.27;;;;;;;7.82;100.00;100536.53;10211572;28;20087;-65
2022/03/30 11:03:26;;;;;;;4.00;1.20;;;;;;;7.87;100.00;100519.28;10216591;28;20140;-64
2022/03/30 11:08:32;;;;;;;6.90;1.20;;;;;;;8.14;100.00;100524.66;10227315;28;20080;-64
2022/03/30 11:13:28;;;;;;;2.40;0.70;;;;;;;7.93;100.00;100527.00;10224355;28;20077;-65
2022/03/30 11:18:26;;;;;;;5.32;1.10;;;;;;;7.87;100.00;100527.44;10219822;28;20053;-65
2022/03/30 11:23:26;;;;;;;5.18;1.25;;;;;;;7.52;100.00;100527.03;10222333;28;20053;-65
2022/03/30 11:28:38;;;;;;;6.40;1.25;;;;;;;7.71;100.00;100522.31;10220174;28;20230;-65
2022/03/30 11:33:36;;;;;;;5.17;1.00;;;;;;;7.73;100.00;100520.09;10218355;28;20450;-65
2022/03/30 11:38:37;;;;;;;5.15;1.77;;;;;;;7.59;100.00;100522.00;10225600;28;20045;-65
2022/03/30 11:49:00;;;;;;;5.65;1.20;;;;;;;7.61;100.00;100518.97;10226778;28;20068;-65
2022/03/30 11:54:44;;;;;;;7.30;1.42;;;;;;;7.58;100.00;100521.19;10205504;28;20050;-65
2022/03/30 11:59:41;;;;;;;4.80;1.30;;;;;;;7.78;100.00;100514.53;10174903;28;20085;-66
2022/03/30 12:04:38;;;;;;;5.55;1.05;;;;;;;8.05;100.00;100512.88;10210536;28;20475;-65
2022/03/30 12:09:43;;;;;;;4.15;1.00;;;;;;;7.93;100.00;100505.22;10219592;28;20499;-65
2022/03/30 12:14:41;;;;;;;2.15;0.88;;;;;;;7.99;100.00;100500.50;10232742;28;20128;-66
2022/03/30 12:19:38;;;;;;;6.20;1.85;;;;;;;8.00;100.00;100499.38;10228627;28;20125;-66
2022/03/30 12:24:34;;;;;;;9.23;1.65;;;;;;;8.09;100.00;100485.84;10225783;28;20104;-66
2022/03/30 12:29:31;;;;;;;4.07;1.40;;;;;;;8.10;100.00;100482.00;10230134;28;20041;-66
2022/03/30 12:34:33;;;;;;;6.47;1.17;;;;;;;8.41;100.00;100479.41;10220303;28;20045;-66
2022/03/30 12:39:39;;;;;;;4.90;0.90;;;;;;;8.54;100.00;100481.28;10208377;28;20568;-66
2022/03/30 12:44:38;;;;;;;5.35;1.10;;;;;;;8.62;100.00;100472.34;10220435;28;20069;-66
2022/03/30 12:49:39;;;;;;;4.35;0.90;;;;;;;8.53;100.00;100476.13;10226119;28;20553;-66
2022/03/30 12:54:37;;;;;;;4.95;1.30;;;;;;;8.81;100.00;100465.91;10222260;28;20462;-66
2022/03/30 12:59:34;;;;;;;2.65;1.10;;;;;;;8.68;100.00;100466.78;10220850;28;20526;-66
2022/03/30 13:04:31;;;;;;;4.38;1.05;;;;;;;8.85;100.00;100464.16;10215724;28;20081;-67
2022/03/30 13:09:28;;;;;;;2.83;0.95;;;;;;;9.05;100.00;100462.81;10195157;28;20068;-67
2022/03/30 13:14:26;;;;;;;2.17;0.70;;;;;;;9.16;96.41;100455.16;10203491;28;20111;-67
2022/03/30 13:19:25;;;;;;;4.88;1.10;;;;;;;9.03;95.46;100446.78;10214743;28;20632;-66
2022/03/30 13:24:27;;;;;;;3.20;0.77;;;;;;;9.15;93.96;100442.66;10211609;28;20065;-66
2022/03/30 13:29:24;;;;;;;2.83;0.90;;;;;;;8.96;93.64;100438.25;10215102;28;20136;-66
2022/03/30 13:34:24;;;;;;;3.17;1.02;;;;;;;9.22;92.37;100426.63;10201806;28;20088;-66
2022/03/30 13:39:21;;;;;;;2.58;1.13;;;;;;;9.27;92.89;100430.00;10206036;28;20116;-66
2022/03/30 13:44:19;;;;;;;4.60;1.10;;;;;;;9.31;93.65;100427.47;10199755;28;20054;-66
2022/03/30 13:49:16;;;;;;;5.10;0.98;;;;;;;9.57;84.53;100413.09;10198267;28;20038;-66
2022/03/30 13:54:18;;;;;;;3.50;1.20;;;;;;;9.72;77.88;100415.34;10200229;28;20049;-66
2022/03/30 13:59:14;;;;;;;2.67;0.80;;;;;;;9.84;85.40;100412.81;10202390;28;20069;-66
2022/03/30 14:04:11;;;;;;;3.00;1.20;;;;;;;10.23;82.84;100411.00;10193688;28;20520;-66
2022/03/30 14:09:07;;;;;;;5.72;1.67;;;;;;;10.44;77.62;100407.66;10211713;28;20380;-66
2022/03/30 14:14:05;;;;;;;5.32;1.38;;;;;;;10.37;78.92;100407.34;10206886;28;20100;-66
2022/03/30 14:19:01;;;;;;;3.22;1.08;;;;;;;10.25;75.77;100403.31;10220399;28;20088;-66
2022/03/30 14:23:58;;;;;;;4.75;1.50;;;;;;;10.20;77.04;100408.94;10219527;28;20095;-66
2022/03/30 14:28:55;;;;;;;3.63;1.10;;;;;;;10.17;72.11;100404.13;10211502;28;20084;-66
2022/03/30 14:33:53;;;;;;;4.20;1.00;;;;;;;10.37;72.77;100397.19;10215933;28;20057;-66
2022/03/30 14:38:50;;;;;;;4.03;1.00;;;;;;;10.14;69.37;100387.56;10228447;28;20038;-65
2022/03/30 14:43:46;;;;;;;4.30;1.30;;;;;;;10.07;76.69;100388.88;10210606;28;20562;-65
2022/03/30 14:48:43;;;;;;;5.00;1.20;;;;;;;10.13;72.56;100381.31;10217576;28;20514;-66
2022/03/30 14:53:40;;;;;;;3.83;1.55;;;;;;;10.34;81.75;100386.13;10205137;28;20057;-65
2022/03/30 14:58:36;;;;;;;6.35;1.40;;;;;;;10.89;82.46;100379.88;10189689;28;20046;-65
2022/03/30 15:03:34;;;;;;;4.00;1.50;;;;;;;11.01;76.50;100371.75;10193710;28;20168;-65
2022/03/30 15:08:31;;;;;;;6.30;1.65;;;;;;;10.71;81.17;100379.91;10195507;28;20137;-65
2022/03/30 15:13:28;;;;;;;5.60;1.70;;;;;;;10.39;81.61;100362.16;10192994;28;20042;-65
2022/03/30 15:18:24;;;;;;;5.22;1.52;;;;;;;10.28;80.32;100366.31;10192152;28;20041;-65
2022/03/30 15:23:21;;;;;;;5.35;1.60;;;;;;;10.34;82.33;100369.75;10196783;28;20127;-65
2022/03/30 15:28:18;;;;;;;6.43;1.50;;;;;;;10.32;82.29;100367.31;10204051;28;20049;-65
2022/03/30 15:33:20;;;;;;;5.47;1.35;;;;;;;10.05;80.12;100363.81;10197307;28;20050;-64
2022/03/30 15:38:17;;;;;;;9.02;1.70;;;;;;;10.21;82.11;100357.81;10197124;28;20096;-65
2022/03/30 15:43:14;;;;;;;5.85;1.50;;;;;;;10.42;80.24;100349.78;10195403;28;20089;-65
2022/03/30 15:48:10;;;;;;;4.00;1.42;;;;;;;11.03;78.06;100335.88;10188838;28;20053;-65
2022/03/30 15:53:10;;;;;;;4.82;1.40;;;;;;;11.56;70.75;100340.69;10189947;28;20050;-65
2022/03/30 15:58:09;;;;;;;4.30;1.70;;;;;;;11.58;71.37;100335.69;10202010;28;20045;-65
2022/03/30 16:03:06;;;;;;;3.95;1.33;;;;;;;11.33;62.29;100340.19;10212954;28;20045;-65
2022/03/30 16:13:19;;;;;;;3.50;1.35;;;;;;;10.29;70.85;100351.59;10208117;28;20127;-65
2022/03/30 16:18:15;;;;;;;3.03;1.17;;;;;;;9.93;77.73;100338.25;10214831;28;20156;-65
2022/03/30 16:23:12;;;;;;;2.85;1.42;;;;;;;9.66;79.80;100340.19;10209147;28;20053;-65
2022/03/30 16:28:09;;;;;;;4.22;1.20;;;;;;;9.42;83.08;100346.09;10219105;28;20069;-66
2022/03/30 16:33:06;;;;;;;6.03;1.92;;;;;;;9.22;87.18;100352.97;10225888;28;20111;-66
2022/03/30 16:38:03;;;;;;;4.07;1.50;;;;;;;8.79;89.25;100346.25;10224792;28;20052;-66
2022/03/30 16:43:00;;;;;;;3.83;1.48;;;;;;;8.85;86.91;100349.66;10216225;28;20167;-65
2022/03/30 16:48:02;;;;;;;4.20;1.55;;;;;;;8.77;91.62;100343.06;10205147;28;20132;-65
2022/03/30 16:52:59;;;;;;;4.23;1.50;;;;;;;8.69;92.99;100345.75;10200563;28;20579;-65
2022/03/30 16:57:59;;;;;;;3.97;1.60;;;;;;;8.56;95.00;100342.81;10200324;28;20089;-65
2022/03/30 17:02:56;;;;;;;5.22;1.45;;;;;;;8.63;95.35;100343.16;10203416;28;20110;-64
2022/03/30 17:13:10;;;;;;;6.28;1.60;;;;;;;8.34;97.39;100348.25;10203976;28;20646;-65
2022/03/30 17:18:07;;;;;;;4.57;1.83;;;;;;;8.31;100.00;100357.03;10203951;28;20061;-64
2022/03/30 17:23:03;;;;;;;4.80;1.75;;;;;;;8.36;100.00;100348.75;10206100;28;20312;-65
2022/03/30 17:28:02;;;;;;;3.72;1.40;;;;;;;8.30;100.00;100344.53;10199093;28;20054;-65
2022/03/30 17:33:02;;;;;;;4.72;1.60;;;;;;;8.11;100.00;100353.72;10202707;28;20500;-65
2022/03/30 17:37:59;;;;;;;7.03;2.00;;;;;;;8.19;100.00;100349.44;10215788;28;20100;-64
2022/03/30 17:42:57;;;;;;;4.68;1.58;;;;;;;8.09;100.00;100360.59;10208077;28;20061;-66
2022/03/30 17:47:54;;;;;;;4.18;1.77;;;;;;;7.99;100.00;100362.44;10211763;28;20089;-65
2022/03/30 17:52:52;;;;;;;5.20;1.67;;;;;;;7.91;100.00;100362.38;10209822;28;20054;-65
2022/03/30 17:57:49;;;;;;;7.85;1.73;;;;;;;7.85;100.00;100367.13;10229680;28;20137;-65
2022/03/30 18:02:46;;;;;;;7.28;1.77;;;;;;;7.80;100.00;100370.78;10222988;28;20053;-65
2022/03/30 18:07:43;;;;;;;5.80;1.80;;;;;;;7.62;100.00;100373.66;10201020;28;20077;-65
2022/03/30 18:12:44;;;;;;;4.07;1.92;;;;;;;7.71;100.00;100367.19;10208919;28;20146;-64
2022/03/30 18:17:42;;;;;;;5.10;2.10;;;;;;;7.55;100.00;100374.09;10204267;28;20084;-64
2022/03/30 18:22:40;;;;;;;5.65;2.10;;;;;;;7.45;100.00;100385.16;10202409;28;20149;-64
2022/03/30 18:27:40;;;;;;;5.18;1.70;;;;;;;7.59;100.00;100380.53;10209306;28;20049;-64
2022/03/30 18:32:36;;;;;;;6.72;2.20;;;;;;;7.64;100.00;100372.25;10201092;28;20703;-65
2022/03/30 18:37:34;;;;;;;8.73;3.22;;;;;;;7.45;100.00;100385.16;10214858;28;20049;-64
2022/03/30 18:42:30;;;;;;;7.95;2.42;;;;;;;7.24;100.00;100385.63;10221337;28;20056;-64
2022/03/30 18:47:27;;;;;;;6.25;2.80;;;;;;;7.22;100.00;100382.38;10203532;28;20045;-64
2022/03/30 18:52:23;;;;;;;6.45;3.47;;;;;;;7.23;100.00;100381.28;10211484;28;20247;-64
2022/03/30 18:57:20;;;;;;;7.70;3.70;;;;;;;6.79;100.00;100381.88;10209875;28;20049;-65
2022/03/30 19:02:16;;;;;;;6.55;3.80;;;;;;;7.09;100.00;100388.63;10206503;28;20500;-65
2022/03/30 19:07:16;;;;;;;7.00;3.65;;;;;;;7.08;100.00;100392.47;10223909;28;20057;-65
2022/03/30 19:12:13;;;;;;;6.95;4.07;;;;;;;6.99;100.00;100391.56;10219768;28;20108;-65
2022/03/30 19:17:10;;;;;;;6.53;2.80;;;;;;;6.92;100.00;100400.13;10211742;28;20150;-65
2022/03/30 19:22:06;;;;;;;6.95;3.17;;;;;;;6.88;100.00;100399.91;10217575;28;20140;-65
2022/03/30 19:27:03;;;;;;;5.93;3.58;;;;;;;6.80;100.00;100392.44;10220548;28;20049;-65
2022/03/30 19:32:02;;;;;;;7.18;4.00;;;;;;;6.79;100.00;100395.47;10219821;28;20753;-65
2022/03/30 19:36:59;;;;;;;6.47;3.65;;;;;;;6.70;100.00;100398.06;10223793;28;20061;-65
2022/03/30 19:41:55;;;;;;;6.22;3.75;;;;;;;6.73;100.00;100397.47;10215435;28;20103;-68
2022/03/30 19:46:52;;;;;;;7.30;3.03;;;;;;;6.63;100.00;100394.94;10219787;28;20080;-65
2022/03/30 19:51:48;;;;;;;4.97;3.10;;;;;;;6.75;100.00;100408.81;10221092;28;20077;-65
2022/03/30 19:56:47;;;;;;;6.53;2.63;;;;;;;6.72;100.00;100412.16;10223221;28;20042;-65
2022/03/30 20:01:43;;;;;;;5.25;2.40;;;;;;;6.78;100.00;100410.13;10230619;28;20523;-65
2022/03/30 20:06:44;;;;;;;8.05;2.60;;;;;;;6.75;100.00;100414.25;10203915;28;20144;-65
2022/03/30 20:11:41;;;;;;;6.03;2.55;;;;;;;6.71;100.00;100416.00;10206086;28;20041;-65
2022/03/30 20:16:38;;;;;;;7.18;2.90;;;;;;;6.70;100.00;100414.34;10219775;28;20076;-65
2022/03/30 20:21:35;;;;;;;6.03;3.00;;;;;;;6.65;100.00;100417.16;10214590;28;20553;-67
2022/03/30 20:26:34;;;;;;;7.75;3.42;;;;;;;6.42;100.00;100414.28;10228844;28;20045;-68
2022/03/30 20:31:30;;;;;;;7.28;2.72;;;;;;;6.61;100.00;100427.00;10221989;28;20454;-67
2022/03/30 20:36:27;;;;;;;7.72;3.30;;;;;;;6.60;100.00;100419.97;10222915;28;20049;-68
2022/03/30 20:41:24;;;;;;;7.22;3.55;;;;;;;6.54;100.00;100424.69;10200229;28;20053;-68
2022/03/30 20:46:21;;;;;;;6.82;3.10;;;;;;;6.51;100.00;100412.50;10213861;28;20594;-67
2022/03/30 20:51:18;;;;;;;7.63;3.30;;;;;;;6.61;100.00;100410.72;10218781;28;20419;-66
2022/03/30 20:56:15;;;;;;;9.73;3.60;;;;;;;6.45;100.00;100416.44;10192970;28;20050;-67
2022/03/30 21:01:11;;;;;;;7.35;3.17;;;;;;;6.46;100.00;100417.22;10206890;28;20180;-68
2022/03/30 21:06:09;;;;;;;6.85;3.20;;;;;;;6.31;100.00;100412.84;10201723;28;20134;-67
2022/03/30 21:11:05;;;;;;;8.15;3.13;;;;;;;6.26;100.00;100410.22;10197808;28;20077;-66
2022/03/30 21:16:02;;;;;;;8.70;3.90;;;;;;;6.27;100.00;100411.84;10210159;28;20573;-67
2022/03/30 21:20:59;;;;;;;10.60;4.68;;;;;;;6.23;100.00;100413.53;10214640;28;20045;-67
2022/03/30 21:25:56;;;;;;;8.70;3.75;;;;;;;6.16;100.00;100421.25;10226032;28;20068;-67
2022/03/30 21:30:52;;;;;;;12.77;4.80;;;;;;;6.16;100.00;100415.81;10223975;28;20140;-65
2022/03/30 21:35:49;;;;;;;11.85;4.40;;;;;;;6.09;100.00;100411.56;10222693;28;20147;-67
2022/03/30 21:40:45;;;;;;;10.30;4.63;;;;;;;5.97;100.00;100413.13;10224087;28;20570;-68
2022/03/30 21:45:42;;;;;;;9.45;3.92;;;;;;;6.00;100.00;100410.63;10212202;28;20050;-68
2022/03/30 21:50:39;;;;;;;9.50;4.15;;;;;;;5.98;100.00;100417.44;10198818;28;20049;-66
2022/03/30 21:55:35;;;;;;;10.32;4.10;;;;;;;5.85;100.00;100410.81;10199688;28;20070;-66
2022/03/30 22:00:50;;;;;;;9.55;3.92;;;;;;;5.78;100.00;100415.78;10226420;28;20045;-64
2022/03/30 22:05:47;;;;;;;8.27;4.30;;;;;;;5.84;100.00;100409.19;10197857;28;20096;-65
2022/03/30 22:10:49;;;;;;;10.40;4.45;;;;;;;5.77;100.00;100408.75;10208011;28;20076;-65
2022/03/30 22:15:46;;;;;;;9.23;3.78;;;;;;;5.75;100.00;100411.75;10224981;28;20076;-67
2022/03/30 22:20:43;;;;;;;9.93;5.10;;;;;;;5.73;100.00;100408.53;10204324;28;20049;-65
2022/03/30 22:25:40;;;;;;;7.65;3.60;;;;;;;5.68;100.00;100400.47;10219592;28;20133;-65
2022/03/30 22:30:38;;;;;;;12.10;4.13;;;;;;;5.66;100.00;100397.22;10198934;28;20495;-66
2022/03/30 22:35:44;;;;;;;8.13;3.22;;;;;;;5.53;100.00;100404.19;10204768;28;20458;-65
2022/03/30 22:40:42;;;;;;;7.07;3.28;;;;;;;5.53;100.00;100409.63;10226946;28;20041;-67
2022/03/30 22:45:40;;;;;;;10.23;4.00;;;;;;;5.50;100.00;100393.94;10226775;28;20042;-66
2022/03/30 22:50:37;;;;;;;8.18;3.28;;;;;;;5.33;100.00;100399.03;10229811;28;20042;-66
2022/03/30 22:55:34;;;;;;;6.82;2.95;;;;;;;5.10;100.00;100396.03;10229471;28;20137;-66
2022/03/30 23:00:30;;;;;;;3.90;1.73;;;;;;;5.19;100.00;100398.94;10229927;28;20057;-67
2022/03/30 23:10:47;;;;;;;4.45;1.75;;;;;;;4.70;100.00;100386.47;10218274;28;20394;-67
2022/03/30 23:15:45;;;;;;;4.97;1.77;;;;;;;4.89;100.00;100389.25;10223429;28;20103;-66
2022/03/30 23:20:42;;;;;;;4.95;1.70;;;;;;;4.84;100.00;100390.91;10228888;28;20103;-65